Time;durP1;ratioP1;P1;durP2;ratioP2;P2;SDS_P1;SDS_P2;PMS_P1;PMS_P2;Temp;Humidity;BMP_temperature;BMP_pressure;BME280_temperature;BME280_humidity;BME280_pressure;Samples;Min_cycle;Max_cycle;Signal;HPM_P1;HPM_P2
2022/09/24 05:01:02;;;;;;;3.88;3.58;;;19.10;58.20;;;;;;5048609;28;20782;-82
2022/09/24 05:07:34;;;;;;;4.00;3.60;;;19.10;58.20;;;;;;4891979;29;20283;-82
2022/09/24 05:11:01;;;;;;;4.25;3.85;;;19.10;58.30;;;;;;4839866;29;20366;-81
2022/09/24 05:14:13;;;;;;;4.03;3.63;;;19.10;58.30;;;;;;4873443;29;20655;-82
2022/09/24 05:47:53;;;;;;;3.72;3.42;;;19.10;58.40;;;;;;4925599;29;20261;-82
2022/09/24 05:51:04;;;;;;;3.83;3.53;;;19.10;58.40;;;;;;4943545;29;20177;-82
2022/09/24 05:53:49;;;;;;;3.65;3.33;;;19.10;58.40;;;;;;4952847;28;20184;-82
2022/09/24 05:56:25;;;;;;;3.63;3.33;;;19.10;58.40;;;;;;4922063;29;20187;-81
2022/09/24 05:59:49;;;;;;;3.80;3.50;;;19.10;58.40;;;;;;4898113;29;20182;-82
2022/09/24 06:03:04;;;;;;;3.55;3.25;;;19.10;58.40;;;;;;4904688;29;20210;-81
2022/09/24 06:06:19;;;;;;;4.10;3.70;;;19.10;58.40;;;;;;4899244;29;20186;-82
2022/09/24 06:09:19;;;;;;;3.60;3.30;;;19.10;58.40;;;;;;4873965;29;20628;-82
2022/09/24 06:12:33;;;;;;;3.90;3.60;;;19.10;58.40;;;;;;4818494;29;20215;-81
2022/09/24 06:15:13;;;;;;;3.60;3.30;;;19.10;58.40;;;;;;4811970;29;20245;-82
2022/09/24 06:18:11;;;;;;;4.07;3.40;;;19.10;58.40;;;;;;4804210;29;20197;-82
2022/09/24 06:24:45;;;;;;;3.70;3.40;;;19.10;58.50;;;;;;4836905;29;20257;-81
2022/09/24 06:31:05;;;;;;;3.30;3.05;;;19.10;58.70;;;;;;4815421;29;20179;-82
2022/09/24 06:33:37;;;;;;;3.67;3.35;;;19.10;58.60;;;;;;4841952;29;20213;-81
2022/09/24 06:37:12;;;;;;;4.00;3.70;;;19.10;58.60;;;;;;4745319;30;20200;-81
2022/09/24 06:43:13;;;;;;;3.63;3.33;;;19.10;58.50;;;;;;4682659;30;20191;-81
2022/09/24 06:46:14;;;;;;;;;;;;;;;;;;;;;
2022/09/24 07:06:08;;;;;;;3.60;3.30;;;19.10;58.80;;;;;;4681002;30;20327;-81
2022/09/24 07:09:09;;;;;;;3.72;3.33;;;19.10;58.60;;;;;;4763880;30;20228;-81
2022/09/24 07:11:57;;;;;;;3.78;3.47;;;19.10;58.70;;;;;;4782957;29;20257;-82
2022/09/24 07:14:49;;;;;;;3.85;3.45;;;19.10;58.70;;;;;;4772290;30;20187;-81
2022/09/24 07:17:42;;;;;;;3.35;2.90;;;19.10;58.80;;;;;;4825102;29;20199;-81
2022/09/24 07:20:35;;;;;;;3.72;3.10;;;19.20;59.10;;;;;;4838940;29;20193;-81
2022/09/24 07:23:20;;;;;;;3.75;3.38;;;19.10;59.10;;;;;;4908575;29;20252;-81
2022/09/24 07:29:22;;;;;;;3.30;3.00;;;19.20;59.50;;;;;;4878534;29;20196;-81
2022/09/24 07:31:51;;;;;;;4.57;3.40;;;19.20;59.70;;;;;;4842233;29;20213;-81
2022/09/24 07:37:32;;;;;;;3.15;2.85;;;19.20;59.90;;;;;;4757137;30;20193;-81
2022/09/24 07:40:18;;;;;;;;;;;;;;;;;;;;;
2022/09/24 07:42:53;;;;;;;3.35;3.05;;;19.20;60.10;;;;;;4714580;30;20277;-81
2022/09/24 07:45:32;;;;;;;3.95;3.00;;;19.30;60.10;;;;;;4679885;30;20196;-81
2022/09/24 07:48:10;;;;;;;5.43;3.10;;;19.20;60.30;;;;;;4681242;30;20325;-81
2022/09/24 07:51:01;;;;;;;;;;;;;;;;;;;;;
2022/09/24 07:53:30;;;;;;;4.47;3.08;;;19.20;60.30;;;;;;4692917;30;20669;-81
2022/09/24 07:56:07;;;;;;;3.33;3.03;;;19.20;60.50;;;;;;4680750;30;20195;-81
2022/09/24 07:58:57;;;;;;;3.30;3.00;;;19.30;60.70;;;;;;4720442;30;20282;-81
2022/09/24 08:01:38;;;;;;;3.55;2.90;;;19.30;60.60;;;;;;4727083;30;20194;-81
2022/09/24 08:04:31;;;;;;;3.95;3.08;;;19.30;60.80;;;;;;4734270;30;20217;-81
2022/09/24 08:07:18;;;;;;;5.70;3.03;;;19.30;60.70;;;;;;4739845;30;20320;-82
2022/09/24 08:10:46;;;;;;;3.33;3.03;;;19.30;60.90;;;;;;4728557;30;20236;-82
2022/09/24 08:20:18;;;;;;;4.00;3.10;;;19.30;61.00;;;;;;4733591;30;20227;-81
2022/09/24 08:22:57;;;;;;;4.57;2.95;;;19.30;60.90;;;;;;4691808;30;20195;-81
2022/09/24 08:25:33;;;;;;;3.83;2.95;;;19.30;61.10;;;;;;4675178;30;20202;-81
2022/09/24 08:28:24;;;;;;;3.70;3.13;;;19.40;61.20;;;;;;4669194;30;20234;-81
2022/09/24 08:31:13;;;;;;;5.07;3.13;;;19.40;61.20;;;;;;4687208;30;20195;-81
2022/09/24 08:34:09;;;;;;;3.60;3.10;;;19.30;61.30;;;;;;4690361;30;20199;-81
2022/09/24 08:38:00;;;;;;;3.90;2.80;;;19.40;61.40;;;;;;4745967;30;20196;-82
2022/09/24 08:40:55;;;;;;;4.53;2.80;;;19.40;61.60;;;;;;4726602;30;20281;-83
2022/09/24 08:43:36;;;;;;;3.50;3.10;;;19.40;61.70;;;;;;4728158;30;20233;-82
2022/09/24 08:49:57;;;;;;;3.40;2.80;;;19.40;61.90;;;;;;4722481;30;20198;-83
2022/09/24 08:53:49;;;;;;;3.60;2.67;;;19.40;62.00;;;;;;4692596;30;20258;-82
2022/09/24 09:09:56;;;;;;;3.55;3.25;;;19.40;62.40;;;;;;4728476;30;20590;-82
2022/09/24 09:12:39;;;;;;;3.80;3.50;;;19.40;62.50;;;;;;4715647;30;20209;-82
2022/09/24 09:15:27;;;;;;;3.60;3.30;;;19.40;62.40;;;;;;4747159;30;20254;-83
2022/09/24 09:18:18;;;;;;;3.28;2.95;;;19.40;62.60;;;;;;4708003;30;20234;-83
2022/09/24 09:20:55;;;;;;;5.82;3.20;;;19.40;62.80;;;;;;4737963;30;20662;-83
2022/09/24 09:23:40;;;;;;;3.47;3.10;;;19.50;62.80;;;;;;4770896;30;20275;-83
2022/09/24 09:26:21;;;;;;;3.63;3.17;;;19.50;62.70;;;;;;4817846;29;20194;-81
2022/09/24 09:28:55;;;;;;;5.57;3.42;;;19.50;62.60;;;;;;4817267;29;20606;-81
2022/09/24 09:31:51;;;;;;;4.93;3.25;;;19.50;62.50;;;;;;4846730;29;20289;-82
2022/09/24 09:34:42;;;;;;;5.15;3.08;;;19.50;62.30;;;;;;4829386;29;20191;-83
2022/09/24 09:37:23;;;;;;;5.18;3.35;;;19.60;62.20;;;;;;4899178;29;20187;-82
2022/09/24 09:40:08;;;;;;;4.45;2.85;;;19.50;62.10;;;;;;4916551;29;20183;-82
2022/09/24 09:42:44;;;;;;;4.35;3.13;;;19.60;62.00;;;;;;4900664;29;20203;-82
2022/09/24 09:45:36;;;;;;;4.70;3.08;;;19.60;61.80;;;;;;4906613;29;20265;-82
2022/09/24 09:48:04;;;;;;;4.15;2.92;;;19.60;61.80;;;;;;4938000;29;20237;-83
2022/09/24 09:50:39;;;;;;;5.22;3.10;;;19.50;61.40;;;;;;4923357;29;20282;-82
2022/09/24 10:17:34;;;;;;;3.78;2.95;;;19.60;60.80;;;;;;4945705;29;20310;-83
2022/09/24 10:20:20;;;;;;;3.25;2.90;;;19.60;60.40;;;;;;4894449;29;20191;-81
2022/09/24 10:50:57;;;;;;;7.15;3.08;;;19.70;59.60;;;;;;4992468;28;20696;-83
2022/09/24 10:54:01;;;;;;;7.88;3.30;;;19.70;59.50;;;;;;4989506;28;20183;-83
2022/09/24 11:10:55;;;;;;;;;;;;;;;;;;;;;
2022/09/24 11:14:00;;;;;;;4.85;2.97;;;19.80;59.20;;;;;;4871496;29;20195;-83
2022/09/24 11:16:46;;;;;;;4.38;3.20;;;19.80;59.00;;;;;;4840186;29;20193;-83
2022/09/24 11:29:53;;;;;;;3.65;2.95;;;19.80;58.60;;;;;;4948646;29;20180;-82
2022/09/24 11:33:11;;;;;;;5.82;2.92;;;19.80;58.40;;;;;;4901524;29;20286;-83
2022/09/24 11:36:06;;;;;;;;;;;;;;;;;;;;;
2022/09/24 11:39:10;;;;;;;8.57;3.00;;;19.90;58.50;;;;;;4857010;29;20209;-82
2022/09/24 11:42:30;;;;;;;5.22;2.97;;;19.80;58.30;;;;;;4906625;29;20324;-82
2022/09/24 11:45:23;;;;;;;5.35;3.30;;;19.80;58.30;;;;;;4865699;29;20198;-82
2022/09/24 11:48:39;;;;;;;3.22;2.92;;;19.80;58.30;;;;;;4915080;29;20259;-83
2022/09/24 11:58:17;;;;;;;4.88;2.90;;;19.80;58.00;;;;;;4928584;29;20179;-83
2022/09/24 12:01:01;;;;;;;6.68;3.28;;;19.90;57.90;;;;;;4871787;29;20188;-83
2022/09/24 12:03:39;;;;;;;3.20;2.90;;;19.90;57.90;;;;;;4840399;29;20765;-83
2022/09/24 12:06:30;;;;;;;4.78;3.00;;;19.90;57.70;;;;;;4800259;29;20192;-82
2022/09/24 12:09:17;;;;;;;4.07;3.03;;;19.80;57.50;;;;;;4781832;30;20691;-84
2022/09/24 12:11:53;;;;;;;3.45;2.88;;;19.90;57.40;;;;;;4747359;30;20703;-83
2022/09/24 12:14:56;;;;;;;5.85;2.80;;;19.90;57.40;;;;;;4778701;30;20187;-83
2022/09/24 12:21:03;;;;;;;3.17;2.88;;;19.90;57.30;;;;;;4809929;29;20297;-83
2022/09/24 12:23:54;;;;;;;3.28;2.97;;;19.90;57.10;;;;;;4814006;29;20205;-83
2022/09/24 12:26:30;;;;;;;4.25;2.92;;;19.90;56.90;;;;;;4759814;30;20227;-83
2022/09/24 14:05:00;;;;;;;3.13;2.30;;;20.00;55.30;;;;;;5022133;28;20221;-83
2022/09/24 14:10:27;;;;;;;4.72;2.50;;;20.00;55.30;;;;;;4956004;28;20605;-83
2022/09/24 14:13:20;;;;;;;2.85;2.65;;;20.00;55.20;;;;;;4932168;29;20185;-83
2022/09/24 14:16:32;;;;;;;2.58;2.38;;;20.00;55.20;;;;;;4925842;29;20234;-83
2022/09/24 14:19:53;;;;;;;2.72;2.53;;;20.00;55.20;;;;;;4925868;29;20193;-83
2022/09/24 14:22:44;;;;;;;2.90;2.60;;;20.00;55.30;;;;;;4905647;29;20290;-83
2022/09/24 14:25:26;;;;;;;2.72;2.53;;;20.00;55.30;;;;;;4907190;29;20210;-82
2022/09/24 14:27:58;;;;;;;3.00;2.70;;;20.00;55.20;;;;;;4824613;29;20233;-83
2022/09/24 14:37:20;;;;;;;2.80;2.60;;;20.00;55.30;;;;;;4823794;29;20181;-83
2022/09/24 14:39:55;;;;;;;2.55;2.35;;;20.10;55.30;;;;;;4819543;29;20238;-82
2022/09/24 14:53:50;;;;;;;2.80;2.60;;;20.00;55.00;;;;;;4937766;29;20169;-82
2022/09/24 14:57:27;;;;;;;2.72;2.53;;;20.00;55.00;;;;;;4943947;29;20192;-82
2022/09/24 14:59:42;;;;;;;2.80;2.60;;;20.00;55.00;;;;;;4975058;28;20686;-83
2022/09/24 15:02:36;;;;;;;2.63;2.40;;;20.00;55.00;;;;;;4934193;29;20189;-82
2022/09/24 15:05:32;;;;;;;2.40;2.30;;;20.00;55.00;;;;;;4949106;28;20648;-82
2022/09/24 15:12:14;;;;;;;3.28;2.50;;;20.00;54.90;;;;;;4888868;29;20187;-82
2022/09/24 15:15:25;;;;;;;2.72;2.53;;;20.00;54.90;;;;;;4890522;29;20184;-83
2022/09/24 15:18:27;;;;;;;2.40;2.20;;;20.00;54.90;;;;;;4827634;29;20253;-82
2022/09/24 15:21:05;;;;;;;2.65;2.45;;;20.00;55.00;;;;;;4821741;29;20186;-82
2022/09/24 15:23:37;;;;;;;2.50;2.30;;;20.00;55.00;;;;;;4806989;29;20259;-82
2022/09/24 15:26:17;;;;;;;2.60;2.40;;;20.00;55.10;;;;;;4820960;29;20261;-82
2022/09/24 15:29:29;;;;;;;2.53;2.33;;;20.00;55.10;;;;;;4803935;29;20324;-82
2022/09/24 15:31:57;;;;;;;2.80;2.60;;;20.00;55.20;;;;;;4816934;29;20191;-83
2022/09/24 15:34:51;;;;;;;2.50;2.30;;;20.00;55.30;;;;;;4822477;29;20214;-82
2022/09/24 15:37:22;;;;;;;2.50;2.30;;;20.00;55.30;;;;;;4804168;30;20214;-83
2022/09/24 15:39:49;;;;;;;2.50;2.33;;;19.90;55.30;;;;;;4855235;29;20194;-82
2022/09/24 15:42:43;;;;;;;2.53;2.33;;;19.90;55.30;;;;;;4855523;29;20193;-83
2022/09/24 15:45:31;;;;;;;2.75;2.55;;;19.90;55.40;;;;;;4860730;29;20193;-82
2022/09/24 15:48:12;;;;;;;2.80;2.60;;;19.90;55.50;;;;;;4858776;29;20237;-83
2022/09/24 15:50:50;;;;;;;2.55;2.35;;;19.90;55.30;;;;;;4888508;29;20638;-82
2022/09/24 15:53:33;;;;;;;3.40;2.20;;;19.90;55.10;;;;;;4877525;29;20303;-83
2022/09/24 15:56:17;;;;;;;2.60;2.40;;;19.90;55.00;;;;;;4953826;29;20196;-82
2022/09/24 15:59:11;;;;;;;2.40;2.20;;;20.00;55.00;;;;;;4906104;29;20197;-83
2022/09/24 16:01:44;;;;;;;2.65;2.45;;;19.90;54.90;;;;;;4891380;29;20194;-82
2022/09/24 16:04:22;;;;;;;2.63;2.42;;;19.90;55.00;;;;;;4905881;29;20189;-83
2022/09/24 16:07:07;;;;;;;2.70;2.50;;;19.90;55.10;;;;;;4898356;29;20241;-82
2022/09/24 16:09:33;;;;;;;2.90;2.70;;;19.90;55.30;;;;;;4953400;29;20178;-82
2022/09/24 16:12:20;;;;;;;2.90;2.70;;;19.90;55.30;;;;;;4936668;29;20202;-82
2022/09/24 16:15:13;;;;;;;2.70;2.50;;;19.90;55.40;;;;;;4901497;29;20182;-82
2022/09/24 16:17:52;;;;;;;2.78;2.58;;;19.90;55.40;;;;;;4887165;29;20195;-83
2022/09/24 16:20:23;;;;;;;2.70;2.50;;;19.90;55.50;;;;;;4865932;29;20192;-83
2022/09/24 16:27:10;;;;;;;2.70;2.50;;;19.90;55.50;;;;;;4881674;29;20194;-82
2022/09/24 16:29:43;;;;;;;2.90;2.70;;;19.90;55.50;;;;;;4895795;29;20727;-82
2022/09/24 16:32:49;;;;;;;3.00;2.80;;;19.90;55.50;;;;;;4880728;29;20193;-82
2022/09/24 16:42:03;;;;;;;2.60;2.40;;;19.80;55.60;;;;;;4915520;29;20234;-82
2022/09/24 16:44:44;;;;;;;2.50;2.30;;;19.80;55.80;;;;;;4922301;29;20194;-82
2022/09/24 16:47:29;;;;;;;3.10;2.90;;;19.90;55.90;;;;;;4925246;29;20206;-82
2022/09/24 16:50:08;;;;;;;2.92;2.72;;;19.80;55.90;;;;;;4905007;29;20186;-82
2022/09/24 16:52:37;;;;;;;2.80;2.60;;;19.80;56.00;;;;;;4898860;29;20216;-82
2022/09/24 16:55:13;;;;;;;2.42;2.33;;;19.90;56.30;;;;;;4901832;29;20191;-82
2022/09/24 16:57:54;;;;;;;3.22;2.90;;;19.80;56.40;;;;;;4917747;29;20207;-82
2022/09/24 17:00:37;;;;;;;2.70;2.50;;;19.80;56.50;;;;;;4918522;29;20216;-82
2022/09/24 17:06:33;;;;;;;3.30;3.00;;;19.80;56.70;;;;;;4898775;29;20240;-82
2022/09/24 17:12:33;;;;;;;2.92;2.72;;;19.80;56.90;;;;;;4868286;29;20184;-82
2022/09/24 17:15:11;;;;;;;2.90;2.70;;;19.80;57.00;;;;;;4864727;29;20192;-82
2022/09/24 17:18:01;;;;;;;3.13;2.92;;;19.80;57.10;;;;;;4828708;29;20684;-82
2022/09/24 17:20:41;;;;;;;2.92;2.72;;;19.80;57.20;;;;;;4825341;29;20200;-82
2022/09/24 17:23:26;;;;;;;2.92;2.72;;;19.70;57.20;;;;;;4826255;29;20193;-82
2022/09/24 17:26:21;;;;;;;2.83;2.63;;;19.70;57.30;;;;;;4834627;29;20188;-82
2022/09/24 17:29:04;;;;;;;2.78;2.58;;;19.70;57.40;;;;;;4836890;29;20246;-82
2022/09/24 17:31:44;;;;;;;2.95;2.75;;;19.70;57.50;;;;;;4836142;29;20264;-82
2022/09/24 17:34:48;;;;;;;3.28;3.00;;;19.70;57.60;;;;;;4845959;29;20183;-83
2022/09/24 17:41:14;;;;;;;2.80;2.60;;;19.70;57.80;;;;;;4927411;29;20177;-82
2022/09/24 17:44:02;;;;;;;2.95;2.75;;;19.70;57.80;;;;;;4920237;29;20186;-82
2022/09/24 18:00:57;;;;;;;;;;;;;;;;;;;;;
2022/09/24 18:06:57;;;;;;;2.90;2.70;;;19.60;58.20;;;;;;5028705;28;20277;-82
2022/09/24 18:09:34;;;;;;;3.15;2.95;;;19.60;58.30;;;;;;4992620;28;20574;-82
2022/09/24 18:12:09;;;;;;;3.55;3.25;;;19.60;58.40;;;;;;4956652;29;20185;-82
2022/09/24 18:15:17;;;;;;;3.00;2.80;;;19.60;58.50;;;;;;4927422;29;20198;-82
2022/09/24 18:17:57;;;;;;;3.60;3.30;;;19.60;58.60;;;;;;4956465;29;20181;-83
2022/09/24 18:34:42;;;;;;;3.45;3.15;;;19.50;58.90;;;;;;4973029;29;20177;-82
2022/09/24 18:37:17;;;;;;;3.30;3.10;;;19.60;59.00;;;;;;4926114;29;20216;-83
2022/09/24 18:39:52;;;;;;;3.47;3.17;;;19.60;59.10;;;;;;4933457;28;20207;-82
2022/09/24 18:52:25;;;;;;;3.60;3.30;;;19.60;59.10;;;;;;5032722;28;20174;-82
2022/09/24 18:55:10;;;;;;;3.70;3.40;;;19.50;59.00;;;;;;4999576;28;20179;-82
2022/09/24 18:57:57;;;;;;;4.05;3.75;;;19.50;58.90;;;;;;4967051;28;20179;-82
2022/09/24 19:03:21;;;;;;;4.10;3.80;;;19.60;58.80;;;;;;5017787;28;20219;-82
2022/09/24 19:05:48;;;;;;;3.95;3.65;;;19.60;58.70;;;;;;4979320;28;20194;-83
2022/09/24 19:08:32;;;;;;;4.03;3.72;;;19.50;58.50;;;;;;4975828;28;20279;-82
2022/09/24 19:22:35;;;;;;;;;;;;;;;;;;;;;
2022/09/24 19:25:06;;;;;;;4.22;3.90;;;19.50;58.30;;;;;;4913195;29;20663;-81
2022/09/24 19:28:02;;;;;;;4.43;4.03;;;19.50;58.50;;;;;;4899306;29;20734;-81
2022/09/24 19:30:52;;;;;;;4.13;3.83;;;19.50;58.50;;;;;;4861778;29;20227;-81
2022/09/24 19:33:18;;;;;;;4.25;3.95;;;19.50;58.60;;;;;;4877786;29;20195;-82
2022/09/24 19:36:04;;;;;;;4.70;4.30;;;19.50;58.60;;;;;;4877347;29;20252;-81
2022/09/24 19:55:47;;;;;;;4.38;4.00;;;19.60;58.80;;;;;;4972259;29;20201;-82
2022/09/24 19:58:51;;;;;;;4.50;4.10;;;19.50;58.70;;;;;;4923490;29;20201;-82
2022/09/24 20:01:31;;;;;;;4.78;4.38;;;19.60;58.90;;;;;;4986535;28;20193;-82
2022/09/24 20:05:01;;;;;;;4.78;4.38;;;19.50;58.80;;;;;;4982639;28;20187;-82
2022/09/24 20:07:08;;;;;;;4.55;4.15;;;19.50;58.90;;;;;;4988129;28;20290;-82
2022/09/24 20:09:45;;;;;;;4.50;4.10;;;19.50;58.90;;;;;;4956021;29;20273;-82
2022/09/24 20:12:18;;;;;;;4.47;4.07;;;19.50;59.00;;;;;;4955876;29;20205;-83
2022/09/24 20:15:20;;;;;;;;;;;;;;;;;;;;;
2022/09/24 20:18:07;;;;;;;4.40;4.00;;;19.50;59.00;;;;;;4916162;29;20210;-82
2022/09/24 20:20:44;;;;;;;4.85;4.45;;;19.60;59.10;;;;;;4872179;29;20194;-82
2022/09/24 20:23:13;;;;;;;4.05;3.75;;;19.50;59.00;;;;;;4887152;29;20197;-82
2022/09/24 20:29:05;;;;;;;4.68;4.28;;;19.50;59.10;;;;;;4877334;29;20220;-82
2022/09/24 20:31:54;;;;;;;4.55;4.15;;;19.50;59.10;;;;;;4861790;29;20173;-82
2022/09/24 20:34:37;;;;;;;4.68;4.28;;;19.50;59.10;;;;;;4844484;29;20234;-83
2022/09/24 20:44:06;;;;;;;4.70;4.30;;;19.50;59.10;;;;;;4824527;29;20197;-82
2022/09/24 20:46:37;;;;;;;5.05;4.65;;;19.50;59.10;;;;;;4794399;29;20282;-83
2022/09/24 20:49:10;;;;;;;5.80;5.30;;;19.60;59.00;;;;;;4807915;29;20233;-82
2022/09/24 20:51:48;;;;;;;5.28;4.70;;;19.50;59.10;;;;;;4809601;29;20191;-82
2022/09/24 20:54:35;;;;;;;;;;;;;;;;;;;;;
2022/09/24 20:57:07;;;;;;;5.60;5.10;;;19.50;59.10;;;;;;4852656;29;20220;-82
2022/09/24 21:00:00;;;;;;;5.70;5.20;;;19.50;59.10;;;;;;4873162;29;20204;-82
2022/09/24 21:02:48;;;;;;;5.35;4.95;;;19.50;59.10;;;;;;4849006;29;20196;-82
2022/09/24 21:09:36;;;;;;;5.50;5.03;;;19.50;59.10;;;;;;4944578;29;20237;-84
2022/09/24 21:12:55;;;;;;;5.45;5.05;;;19.50;59.10;;;;;;4941867;29;20231;-82
2022/09/24 21:26:36;;;;;;;5.50;5.00;;;19.50;59.20;;;;;;4975605;28;20203;-82
2022/09/24 21:29:17;;;;;;;5.57;5.13;;;19.40;59.20;;;;;;4960062;29;20245;-82
2022/09/24 21:31:52;;;;;;;5.75;5.25;;;19.50;59.20;;;;;;4907690;29;20202;-82
2022/09/24 21:34:39;;;;;;;5.80;5.30;;;19.40;59.30;;;;;;4922344;29;20273;-82
2022/09/24 21:37:13;;;;;;;5.85;5.35;;;19.40;59.20;;;;;;4919028;29;20254;-83
2022/09/24 21:54:42;;;;;;;5.80;5.30;;;19.40;59.30;;;;;;4918801;29;20217;-82
2022/09/24 21:58:17;;;;;;;5.93;5.43;;;19.40;59.30;;;;;;4918587;29;20322;-83
2022/09/24 22:04:47;;;;;;;5.32;4.93;;;19.40;59.50;;;;;;4940850;29;20219;-82
2022/09/24 22:07:17;;;;;;;5.88;5.38;;;19.40;59.40;;;;;;4946704;28;20212;-83
2022/09/24 22:09:54;;;;;;;5.65;5.15;;;19.40;59.50;;;;;;4963503;28;20184;-82
2022/09/24 22:12:26;;;;;;;6.03;5.53;;;19.40;59.60;;;;;;4958465;29;20181;-82
2022/09/24 22:25:50;;;;;;;5.97;5.45;;;19.40;59.40;;;;;;4975865;29;20157;-82
2022/09/24 22:28:25;;;;;;;5.95;5.45;;;19.40;59.50;;;;;;4975008;29;20276;-82
2022/09/24 22:45:17;;;;;;;6.05;5.55;;;19.40;59.30;;;;;;4917772;29;20175;-82
2022/09/24 22:51:24;;;;;;;5.80;5.30;;;19.40;59.40;;;;;;4880700;29;20204;-82
2022/09/24 22:53:58;;;;;;;6.32;5.70;;;19.40;59.40;;;;;;4850860;29;20192;-82
2022/09/24 22:56:53;;;;;;;5.70;5.30;;;19.40;59.40;;;;;;4843345;29;20189;-82
2022/09/24 22:59:42;;;;;;;5.65;5.15;;;19.40;59.40;;;;;;4827871;29;20194;-81
2022/09/24 23:02:39;;;;;;;5.90;5.40;;;19.40;59.40;;;;;;4831063;29;20413;-82
2022/09/24 23:05:22;;;;;;;5.63;5.13;;;19.40;59.40;;;;;;4861736;29;20193;-82
2022/09/24 23:07:57;;;;;;;5.90;5.40;;;19.40;59.40;;;;;;4853132;29;20241;-82
2022/09/24 23:10:32;;;;;;;5.80;5.30;;;19.40;59.50;;;;;;4856913;29;20186;-82
2022/09/24 23:13:24;;;;;;;5.95;5.45;;;19.40;59.50;;;;;;4837557;29;20194;-82
2022/09/24 23:16:09;;;;;;;6.00;5.50;;;19.30;59.40;;;;;;4803354;29;20215;-82
2022/09/24 23:39:10;;;;;;;6.28;5.78;;;19.30;59.60;;;;;;4806054;30;20189;-82
2022/09/24 23:41:43;;;;;;;5.90;5.40;;;19.30;59.60;;;;;;4805406;29;20182;-83
2022/09/24 23:44:12;;;;;;;5.90;5.40;;;19.30;59.60;;;;;;4804326;29;20174;-82
2022/09/24 23:46:51;;;;;;;5.75;5.25;;;19.30;59.60;;;;;;4828081;29;20186;-82
2022/09/24 23:49:28;;;;;;;5.60;5.10;;;19.30;59.60;;;;;;4819392;29;20255;-83
2022/09/24 23:52:18;;;;;;;6.03;5.53;;;19.30;59.60;;;;;;4846538;29;20241;-82
2022/09/24 23:54:54;;;;;;;5.90;5.40;;;19.30;59.60;;;;;;4846003;29;20189;-82
2022/09/24 23:57:45;;;;;;;5.97;5.47;;;19.30;59.60;;;;;;4845642;29;20193;-82
